Time;durP1;ratioP1;P1;durP2;ratioP2;P2;SDS_P1;SDS_P2;PMS_P1;PMS_P2;Temp;Humidity;BMP_temperature;BMP_pressure;BME280_temperature;BME280_humidity;BME280_pressure;Samples;Min_cycle;Max_cycle;Signal;HPM_P1;HPM_P2
2021/04/11 00:00:32;;;;;;;25.85;14.82;;;230.70;1484.80;;;;;;5090290;28;20521;-60
2021/04/11 00:02:59;;;;;;;18.48;10.52;;;230.70;1484.80;;;;;;5084822;28;20100;-60
2021/04/11 00:05:31;;;;;;;21.08;13.73;;;230.70;1536.00;;;;;;5078584;28;20031;-58
2021/04/11 00:08:01;;;;;;;23.50;12.57;;;230.50;1561.60;;;;;;5073054;28;20075;-57
2021/04/11 00:10:31;;;;;;;76.10;38.17;;;230.50;1561.60;;;;;;5061867;28;20650;-58
2021/04/11 00:12:58;;;;;;;21.75;11.88;;;230.40;1587.20;;;;;;5066428;28;20029;-58
2021/04/11 00:15:24;;;;;;;21.50;9.75;;;205.60;1638.40;;;;;;5062458;28;20056;-59
2021/04/11 00:17:50;;;;;;;11.23;7.18;;;205.30;1689.60;;;;;;5061361;28;20451;-62
2021/04/11 00:20:16;;;;;;;11.35;6.40;;;204.90;1740.80;;;;;;5075671;28;20032;-58
2021/04/11 00:22:43;;;;;;;16.98;8.73;;;180.10;1740.80;;;;;;5062840;28;20390;-58
2021/04/11 00:25:12;;;;;;;15.88;9.30;;;204.80;1715.20;;;;;;5065918;28;20028;-59
2021/04/11 00:27:37;;;;;;;27.38;13.98;;;205.00;1689.60;;;;;;5081380;28;20025;-63
2021/04/11 00:30:05;;;;;;;15.00;9.68;;;205.20;1664.00;;;;;;5080287;28;20023;-60
2021/04/11 00:32:31;;;;;;;13.10;7.20;;;205.40;1638.40;;;;;;5066359;28;20029;-60
2021/04/11 00:34:56;;;;;;;13.80;7.85;;;205.20;1715.20;;;;;;5064518;28;20024;-57
2021/04/11 00:37:22;;;;;;;12.65;6.80;;;204.90;1740.80;;;;;;5062369;28;20352;-59
2021/04/11 00:39:48;;;;;;;10.20;6.47;;;204.90;1766.40;;;;;;5070912;28;20032;-59
2021/04/11 00:42:25;;;;;;;8.80;5.18;;;204.80;1766.40;;;;;;5079280;28;20016;-60
2021/04/11 00:45:04;;;;;;;11.75;6.63;;;204.80;1766.40;;;;;;5077692;28;20135;-59
2021/04/11 00:47:30;;;;;;;13.55;6.90;;;204.80;1792.00;;;;;;5064156;28;20102;-58
2021/04/11 00:49:56;;;;;;;14.05;6.47;;;204.80;1766.40;;;;;;5080709;28;20034;-58
2021/04/11 00:52:22;;;;;;;11.55;5.88;;;205.00;1715.20;;;;;;5092886;28;20020;-61
2021/04/11 00:54:47;;;;;;;7.93;4.97;;;205.10;1689.60;;;;;;5093168;28;20581;-58
2021/04/11 00:57:14;;;;;;;7.95;5.97;;;205.30;1664.00;;;;;;5093036;28;20060;-58
2021/04/11 00:59:40;;;;;;;11.15;6.57;;;205.40;1638.40;;;;;;5092825;28;20035;-62
2021/04/11 01:02:07;;;;;;;17.08;9.90;;;205.50;1638.40;;;;;;5092956;28;20030;-60
2021/04/11 01:04:32;;;;;;;15.27;8.98;;;205.50;1664.00;;;;;;5092669;28;20024;-57
2021/04/11 01:07:03;;;;;;;19.13;9.43;;;205.10;1740.80;;;;;;5092854;28;20032;-57
2021/04/11 01:09:35;;;;;;;22.75;10.77;;;205.30;1664.00;;;;;;5092853;28;20028;-60
2021/04/11 01:12:03;;;;;;;21.40;13.82;;;205.40;1638.40;;;;;;5092549;28;20032;-59
2021/04/11 01:14:31;;;;;;;19.23;11.32;;;205.60;1587.20;;;;;;5092630;28;20024;-59
2021/04/11 01:16:57;;;;;;;16.52;9.93;;;205.70;1561.60;;;;;;5092663;28;20153;-59
2021/04/11 01:19:35;;;;;;;14.00;8.98;;;230.40;1561.60;;;;;;5092075;28;20508;-60
2021/04/11 01:22:34;;;;;;;9.52;5.57;;;230.40;1536.00;;;;;;5089884;28;20023;-58
2021/04/11 01:25:06;;;;;;;9.00;5.63;;;205.60;1638.40;;;;;;5092188;28;20048;-59
2021/04/11 01:27:34;;;;;;;8.85;6.07;;;205.60;1612.80;;;;;;5092037;28;20020;-61
2021/04/11 01:30:09;;;;;;;9.98;6.00;;;205.60;1612.80;;;;;;5092108;28;20079;-60
2021/04/11 01:32:35;;;;;;;7.60;5.07;;;205.50;1638.40;;;;;;5091958;28;20409;-58
2021/04/11 01:35:04;;;;;;;10.65;5.68;;;205.30;1689.60;;;;;;5091986;28;20024;-59
2021/04/11 01:37:30;;;;;;;9.52;5.70;;;205.40;1664.00;;;;;;5092080;28;20025;-60
2021/04/11 01:39:57;;;;;;;12.27;6.85;;;205.30;1689.60;;;;;;5092116;28;20043;-60
2021/04/11 01:42:23;;;;;;;15.18;7.03;;;205.20;1715.20;;;;;;5091822;28;20538;-62
2021/04/11 01:44:50;;;;;;;15.00;6.93;;;205.20;1715.20;;;;;;5091637;28;20490;-61
2021/04/11 01:47:17;;;;;;;14.73;6.65;;;205.10;1740.80;;;;;;5092183;28;20028;-60
2021/04/11 01:49:44;;;;;;;10.13;6.15;;;205.20;1715.20;;;;;;5091930;28;20066;-59
2021/04/11 01:52:24;;;;;;;7.45;4.82;;;204.90;1740.80;;;;;;5092055;28;20031;-60
2021/04/11 01:54:50;;;;;;;11.85;4.25;;;205.00;1689.60;;;;;;5091839;28;20024;-60
2021/04/11 01:57:30;;;;;;;6.25;4.10;;;205.20;1664.00;;;;;;5091761;28;20028;-60
2021/04/11 02:00:17;;;;;;;12.88;6.10;;;205.40;1638.40;;;;;;5091700;28;20043;-60
2021/04/11 02:02:42;;;;;;;14.18;7.38;;;205.50;1638.40;;;;;;5091462;28;20052;-58
2021/04/11 02:05:17;;;;;;;13.82;8.32;;;205.60;1638.40;;;;;;5091948;28;20066;-58
2021/04/11 02:07:44;;;;;;;28.02;14.02;;;205.60;1638.40;;;;;;5091574;28;20057;-61
2021/04/11 02:10:11;;;;;;;31.77;14.98;;;205.60;1638.40;;;;;;5091636;28;20034;-60
2021/04/11 02:12:38;;;;;;;24.75;13.02;;;205.60;1638.40;;;;;;5091524;28;20016;-59
2021/04/11 02:15:43;;;;;;;22.38;12.68;;;205.70;1612.80;;;;;;5091124;28;20034;-59
2021/04/11 02:18:11;;;;;;;12.90;7.60;;;205.70;1638.40;;;;;;5017857;28;20034;-59
2021/04/11 02:20:37;;;;;;;21.52;13.93;;;205.60;1638.40;;;;;;5029385;28;20125;-58
2021/04/11 02:23:03;;;;;;;13.25;6.80;;;205.50;1638.40;;;;;;5029081;28;20180;-60
2021/04/11 02:25:33;;;;;;;13.48;7.63;;;205.40;1689.60;;;;;;5029088;28;20068;-58
2021/04/11 02:28:00;;;;;;;17.77;9.40;;;205.30;1689.60;;;;;;5029307;28;20026;-60
2021/04/11 02:30:27;;;;;;;10.32;6.28;;;205.30;1664.00;;;;;;5029214;28;20093;-60
2021/04/11 02:32:56;;;;;;;10.75;6.38;;;205.40;1664.00;;;;;;5028445;28;20480;-60
2021/04/11 02:35:25;;;;;;;15.15;11.48;;;205.50;1664.00;;;;;;5029005;28;20108;-58
2021/04/11 02:37:56;;;;;;;7.80;4.40;;;205.40;1689.60;;;;;;5028975;28;20028;-59
2021/04/11 02:40:27;;;;;;;5.85;3.75;;;205.50;1638.40;;;;;;5028752;28;20041;-61
2021/04/11 02:42:56;;;;;;;7.85;4.72;;;205.60;1612.80;;;;;;5029007;28;20096;-60
2021/04/11 02:45:25;;;;;;;11.55;6.93;;;205.70;1587.20;;;;;;5028675;28;20487;-60
2021/04/11 02:47:52;;;;;;;20.85;12.38;;;205.70;1664.00;;;;;;5029165;28;20065;-58
2021/04/11 02:50:19;;;;;;;18.95;10.70;;;205.70;1638.40;;;;;;5029105;28;20029;-61
2021/04/11 02:52:57;;;;;;;17.77;10.20;;;230.40;1638.40;;;;;;5076102;28;20036;-58
2021/04/11 02:55:25;;;;;;;19.77;10.38;;;230.40;1612.80;;;;;;5090357;28;20028;-61
2021/04/11 02:57:55;;;;;;;9.48;6.72;;;230.40;1638.40;;;;;;5090535;28;20032;-58
2021/04/11 03:00:23;;;;;;;11.82;7.35;;;230.40;1638.40;;;;;;5090500;28;20040;-59
2021/04/11 03:02:49;;;;;;;12.00;6.20;;;205.70;1638.40;;;;;;5090667;28;20024;-62
2021/04/11 03:05:18;;;;;;;9.77;5.00;;;205.70;1638.40;;;;;;5090541;28;20103;-63
2021/04/11 03:07:47;;;;;;;15.25;5.53;;;205.70;1612.80;;;;;;5088686;28;20111;-62
2021/04/11 03:10:26;;;;;;;12.90;6.32;;;230.40;1587.20;;;;;;5090382;28;20141;-59
2021/04/11 03:12:53;;;;;;;10.55;6.43;;;230.40;1561.60;;;;;;5090409;28;20024;-59
2021/04/11 03:15:20;;;;;;;14.40;6.15;;;230.40;1612.80;;;;;;5090465;28;20024;-61
2021/04/11 03:17:49;;;;;;;13.13;6.57;;;205.70;1638.40;;;;;;5090305;28;20059;-59
2021/04/11 03:20:24;;;;;;;9.93;6.38;;;205.70;1638.40;;;;;;5090247;28;20068;-58
2021/04/11 03:22:52;;;;;;;8.52;5.00;;;205.60;1638.40;;;;;;5090383;28;20024;-60
2021/04/11 03:25:19;;;;;;;9.70;6.07;;;205.60;1638.40;;;;;;5090408;28;20402;-58
2021/04/11 03:27:50;;;;;;;11.52;6.15;;;205.60;1638.40;;;;;;5090150;28;20115;-59
2021/04/11 03:30:24;;;;;;;11.00;6.22;;;205.50;1638.40;;;;;;5090387;28;20134;-59
2021/04/11 03:32:54;;;;;;;23.50;7.45;;;205.50;1638.40;;;;;;5089986;28;20380;-59
2021/04/11 03:35:26;;;;;;;11.75;6.50;;;205.50;1638.40;;;;;;5090436;28;20062;-60
2021/04/11 03:37:53;;;;;;;10.38;6.13;;;205.40;1612.80;;;;;;5089892;28;20030;-59
2021/04/11 03:40:24;;;;;;;10.02;5.65;;;205.40;1612.80;;;;;;5090359;28;20096;-60
2021/04/11 03:42:54;;;;;;;11.35;6.40;;;205.40;1638.40;;;;;;5090178;28;20523;-58
2021/04/11 03:45:20;;;;;;;10.68;6.90;;;205.30;1689.60;;;;;;5093249;28;20160;-58
2021/04/11 03:48:13;;;;;;;13.05;6.97;;;205.30;1638.40;;;;;;5094272;28;20476;-60
2021/04/11 03:50:45;;;;;;;13.45;7.22;;;205.20;1664.00;;;;;;5012123;28;20112;-58
2021/04/11 03:53:17;;;;;;;14.52;8.07;;;205.20;1638.40;;;;;;5011976;28;20081;-60
2021/04/11 03:55:46;;;;;;;13.52;6.90;;;205.20;1638.40;;;;;;5011707;28;20409;-60
2021/04/11 03:58:19;;;;;;;10.57;6.25;;;205.20;1664.00;;;;;;5011742;28;20060;-58
2021/04/11 04:00:51;;;;;;;11.85;5.07;;;205.10;1664.00;;;;;;5011684;28;20022;-59
2021/04/11 04:03:25;;;;;;;11.02;5.75;;;205.00;1689.60;;;;;;5011965;28;20033;-59
2021/04/11 04:05:52;;;;;;;14.60;9.45;;;205.00;1689.60;;;;;;5011804;28;20088;-60
2021/04/11 04:08:18;;;;;;;9.23;6.13;;;204.90;1715.20;;;;;;5011898;28;20034;-58
2021/04/11 04:11:03;;;;;;;11.00;6.65;;;204.80;1715.20;;;;;;5011728;28;20089;-59
2021/04/11 04:13:58;;;;;;;11.45;6.95;;;204.90;1715.20;;;;;;5011796;28;20061;-60
2021/04/11 04:16:44;;;;;;;11.35;6.53;;;204.80;1715.20;;;;;;5011561;28;20034;-59
2021/04/11 04:19:39;;;;;;;10.65;6.13;;;204.90;1715.20;;;;;;5011709;28;20073;-58
2021/04/11 04:22:33;;;;;;;11.43;7.65;;;204.90;1715.20;;;;;;4933996;29;20063;-60
2021/04/11 04:25:07;;;;;;;13.50;7.80;;;205.00;1715.20;;;;;;4874861;29;20078;-60
2021/04/11 04:27:43;;;;;;;10.60;7.20;;;204.90;1740.80;;;;;;4902767;29;20040;-58
2021/04/11 04:30:24;;;;;;;10.57;5.80;;;205.00;1740.80;;;;;;4931830;29;20393;-58
2021/04/11 04:33:21;;;;;;;11.50;9.35;;;205.10;1715.20;;;;;;4931858;29;20483;-61
2021/04/11 04:35:56;;;;;;;13.98;9.45;;;205.20;1689.60;;;;;;4931683;29;20061;-60
2021/04/11 04:38:32;;;;;;;11.43;7.78;;;205.40;1689.60;;;;;;4931137;29;20043;-59
2021/04/11 04:41:09;;;;;;;14.73;9.00;;;205.40;1689.60;;;;;;4931694;29;20040;-59
2021/04/11 04:43:59;;;;;;;11.63;7.70;;;205.60;1664.00;;;;;;4931277;29;20084;-59
2021/04/11 04:46:27;;;;;;;15.07;8.43;;;205.70;1638.40;;;;;;4931393;29;20123;-60
2021/04/11 04:49:02;;;;;;;11.68;7.75;;;230.50;1638.40;;;;;;4931362;29;20052;-60
2021/04/11 04:51:35;;;;;;;12.30;8.30;;;230.60;1612.80;;;;;;4931068;29;20144;-59
2021/04/11 04:54:10;;;;;;;;;;;230.80;1612.80;;;;;;4931790;29;20525;-60
2021/04/11 04:56:42;;;;;;;9.05;6.30;;;230.80;1612.80;;;;;;4928272;29;19958;-57
2021/04/11 04:59:13;;;;;;;11.15;6.68;;;230.80;1612.80;;;;;;4970950;28;20736;-60
2021/04/11 05:02:06;;;;;;;14.20;6.00;;;231.00;1587.20;;;;;;5040481;28;20139;-59
2021/04/11 05:04:35;;;;;;;10.45;6.15;;;231.10;1561.60;;;;;;5008210;28;20657;-59
2021/04/11 05:07:21;;;;;;;15.15;10.35;;;256.80;1484.80;;;;;;5008602;28;20030;-59
2021/04/11 05:09:56;;;;;;;11.60;6.95;;;358.60;1228.80;;;;;;5008698;28;20066;-60
2021/04/11 05:12:41;;;;;;;13.30;11.95;;;410.00;1075.20;;;;;;5008698;28;20076;-58
2021/04/11 05:15:30;;;;;;;12.30;7.35;;;435.80;972.80;;;;;;5008737;28;20034;-58
2021/04/11 05:18:05;;;;;;;18.52;7.20;;;486.40;896.00;;;;;;5008174;28;20511;-60
2021/04/11 05:20:35;;;;;;;8.85;6.63;;;487.30;844.80;;;;;;5008374;28;20407;-61
2021/04/11 05:23:23;;;;;;;7.85;5.63;;;512.00;819.20;;;;;;5008153;28;20053;-60
2021/04/11 05:25:51;;;;;;;8.80;5.38;;;486.60;844.80;;;;;;5008261;28;20037;-59
2021/04/11 05:28:34;;;;;;;9.05;6.25;;;461.40;921.60;;;;;;5008341;28;20046;-59
2021/04/11 05:31:10;;;;;;;9.52;6.38;;;461.60;896.00;;;;;;5008200;28;20426;-60
2021/04/11 05:33:37;;;;;;;10.68;6.72;;;487.10;844.80;;;;;;5008505;28;20535;-59
2021/04/11 05:36:32;;;;;;;11.05;7.00;;;487.00;844.80;;;;;;5008145;28;20672;-60
2021/04/11 05:39:34;;;;;;;8.77;6.63;;;512.00;793.60;;;;;;5008205;28;20045;-60
2021/04/11 05:42:20;;;;;;;11.02;8.27;;;512.20;793.60;;;;;;5063857;28;20047;-61
2021/04/11 05:44:56;;;;;;;12.13;9.73;;;512.20;819.20;;;;;;5091121;28;20494;-60
2021/04/11 05:47:26;;;;;;;48.45;38.00;;;512.40;793.60;;;;;;5091433;28;20028;-59
2021/04/11 05:49:56;;;;;;;54.15;40.92;;;563.30;793.60;;;;;;5091196;28;20024;-61
2021/04/11 05:52:35;;;;;;;40.40;33.00;;;563.60;768.00;;;;;;5090535;28;20027;-60
2021/04/11 05:55:07;;;;;;;37.55;30.60;;;589.20;716.80;;;;;;5089741;28;20025;-60
2021/04/11 05:57:42;;;;;;;30.25;27.02;;;614.50;691.20;;;;;;5089979;28;20078;-60
2021/04/11 06:00:14;;;;;;;25.80;21.25;;;614.80;665.60;;;;;;5090238;28;20107;-61
2021/04/11 06:02:43;;;;;;;29.35;21.83;;;665.60;614.40;;;;;;5090275;28;20051;-60
2021/04/11 06:05:18;;;;;;;32.22;28.58;;;691.40;537.60;;;;;;5090071;28;20040;-61
2021/04/11 06:07:47;;;;;;;35.28;31.40;;;691.60;537.60;;;;;;5089396;28;20537;-61
2021/04/11 06:10:21;;;;;;;29.73;26.60;;;716.80;537.60;;;;;;5089365;28;20070;-60
2021/04/11 06:13:03;;;;;;;43.83;39.25;;;742.40;512.00;;;;;;5089968;28;20031;-58
2021/04/11 06:15:32;;;;;;;46.58;41.58;;;717.60;486.40;;;;;;5089965;28;20089;-64
2021/04/11 06:18:00;;;;;;;48.15;43.05;;;742.90;512.00;;;;;;5089761;28;20105;-61
2021/04/11 06:20:28;;;;;;;50.08;44.97;;;768.20;486.40;;;;;;5089802;28;20036;-59
2021/04/11 06:23:23;;;;;;;54.65;48.83;;;743.10;512.00;;;;;;5089181;28;20466;-61
2021/04/11 06:25:54;;;;;;;51.60;46.13;;;717.10;537.60;;;;;;5089676;28;20158;-61
2021/04/11 06:28:47;;;;;;;54.15;49.10;;;742.40;537.60;;;;;;5089615;28;20039;-61
2021/04/11 06:31:19;;;;;;;73.43;65.70;;;717.40;537.60;;;;;;5089351;28;20028;-61
2021/04/11 06:33:52;;;;;;;92.82;79.95;;;742.80;512.00;;;;;;5089632;28;20028;-62
2021/04/11 06:36:26;;;;;;;63.60;56.60;;;768.20;486.40;;;;;;5089200;28;20237;-63
2021/04/11 06:38:58;;;;;;;66.75;59.45;;;742.60;537.60;;;;;;5089104;28;20057;-63
2021/04/11 06:41:35;;;;;;;104.75;92.50;;;768.30;486.40;;;;;;5089058;28;20512;-63
2021/04/11 06:44:13;;;;;;;87.47;78.60;;;743.00;512.00;;;;;;5088866;28;20040;-62
2021/04/11 06:47:24;;;;;;;54.60;49.13;;;717.50;537.60;;;;;;5089226;28;20470;-61
2021/04/11 06:50:10;;;;;;;49.40;44.65;;;717.70;512.00;;;;;;5085850;28;20029;-60
2021/04/11 06:52:48;;;;;;;57.13;51.13;;;743.20;512.00;;;;;;5074939;28;20029;-63
2021/04/11 06:55:32;;;;;;;53.58;48.13;;;768.20;512.00;;;;;;5074884;28;20097;-63
2021/04/11 06:58:43;;;;;;;53.75;48.35;;;768.70;486.40;;;;;;5076431;28;20122;-63
2021/04/11 07:01:42;;;;;;;51.00;45.60;;;768.10;537.60;;;;;;4992302;28;20030;-61
2021/04/11 07:04:28;;;;;;;59.50;53.35;;;742.90;537.60;;;;;;4992342;28;20058;-61
2021/04/11 07:07:03;;;;;;;50.45;45.53;;;717.70;563.20;;;;;;4986782;28;20040;-63
2021/04/11 07:09:49;;;;;;;49.67;45.10;;;717.50;563.20;;;;;;4986914;28;20030;-62
2021/04/11 07:12:38;;;;;;;45.13;40.53;;;717.40;563.20;;;;;;4986853;28;20034;-60
2021/04/11 07:15:41;;;;;;;42.25;38.10;;;717.50;537.60;;;;;;4909741;29;20077;-63
2021/04/11 07:18:24;;;;;;;52.20;44.80;;;717.40;563.20;;;;;;4909258;29;20059;-61
2021/04/11 07:21:13;;;;;;;43.00;38.53;;;691.80;588.80;;;;;;4909867;29;20036;-61
2021/04/11 07:23:50;;;;;;;32.75;29.63;;;691.70;614.40;;;;;;4927307;29;20042;-61
2021/04/11 07:26:34;;;;;;;35.42;32.20;;;691.40;614.40;;;;;;4927558;29;20247;-60
2021/04/11 07:29:44;;;;;;;29.65;27.05;;;717.10;588.80;;;;;;4927671;29;20032;-64
2021/04/11 07:32:31;;;;;;;27.92;25.15;;;717.70;563.20;;;;;;4932126;28;20131;-60
2021/04/11 07:35:33;;;;;;;25.67;23.35;;;742.60;588.80;;;;;;4967054;28;20033;-63
2021/04/11 07:38:29;;;;;;;27.88;23.38;;;743.00;563.20;;;;;;4967261;28;20031;-60
2021/04/11 07:41:12;;;;;;;27.48;24.63;;;768.40;537.60;;;;;;4967146;28;20200;-62
2021/04/11 07:44:21;;;;;;;21.48;17.27;;;717.50;563.20;;;;;;4992438;28;20437;-59
2021/04/11 07:47:10;;;;;;;27.80;24.50;;;691.80;614.40;;;;;;4996294;28;20046;-63
2021/04/11 07:50:02;;;;;;;32.65;27.95;;;742.60;588.80;;;;;;4996071;28;20014;-62
2021/04/11 07:52:40;;;;;;;42.67;35.73;;;742.90;588.80;;;;;;5046814;28;20044;-60
2021/04/11 07:55:32;;;;;;;32.00;27.83;;;794.00;537.60;;;;;;5076783;28;20027;-62
2021/04/11 07:58:19;;;;;;;22.35;20.02;;;819.80;486.40;;;;;;5077307;28;20060;-60
2021/04/11 08:01:15;;;;;;;24.45;21.15;;;819.50;512.00;;;;;;5078378;28;20016;-58
2021/04/11 08:04:19;;;;;;;24.02;21.70;;;794.00;537.60;;;;;;5076553;28;20066;-57
2021/04/11 08:06:54;;;;;;;29.73;26.45;;;768.50;563.20;;;;;;5081723;28;20043;-60
2021/04/11 08:09:53;;;;;;;44.78;36.78;;;717.50;588.80;;;;;;5089077;28;20351;-59
2021/04/11 08:12:29;;;;;;;22.65;20.38;;;692.10;588.80;;;;;;5088993;28;20046;-60
2021/04/11 08:15:14;;;;;;;19.73;16.08;;;742.80;563.20;;;;;;5088348;28;20035;-60
2021/04/11 08:18:05;;;;;;;22.77;15.32;;;742.90;537.60;;;;;;5089191;28;20363;-65
2021/04/11 08:20:57;;;;;;;26.40;17.02;;;691.90;563.20;;;;;;5088553;28;20032;-59
2021/04/11 08:23:57;;;;;;;15.32;11.50;;;691.80;563.20;;;;;;4987340;28;20093;-58
2021/04/11 08:26:40;;;;;;;16.02;12.25;;;717.20;512.00;;;;;;4965020;28;20626;-62
2021/04/11 08:29:20;;;;;;;20.77;15.90;;;743.20;486.40;;;;;;4986402;28;20114;-59
2021/04/11 08:32:01;;;;;;;13.82;11.32;;;794.00;460.80;;;;;;4990626;28;20034;-59
2021/04/11 08:34:53;;;;;;;12.50;10.32;;;717.50;486.40;;;;;;4991965;28;20037;-59
2021/04/11 08:37:38;;;;;;;10.47;8.60;;;717.10;512.00;;;;;;4990996;28;20568;-60
2021/04/11 08:40:15;;;;;;;14.75;12.13;;;691.30;537.60;;;;;;4989179;28;20042;-59
2021/04/11 08:43:14;;;;;;;14.02;11.88;;;666.30;563.20;;;;;;4990102;28;20155;-62
2021/04/11 08:45:49;;;;;;;8.57;7.35;;;716.80;512.00;;;;;;4989554;28;20066;-60
2021/04/11 08:48:29;;;;;;;16.15;13.52;;;691.80;512.00;;;;;;4989400;28;20496;-59
2021/04/11 08:51:13;;;;;;;22.42;15.98;;;716.90;537.60;;;;;;4989343;28;20058;-59
2021/04/11 08:53:44;;;;;;;8.00;6.53;;;716.80;512.00;;;;;;4988577;28;20471;-59
2021/04/11 08:56:23;;;;;;;9.15;7.25;;;666.00;537.60;;;;;;4989242;28;20121;-59
2021/04/11 08:59:00;;;;;;;24.55;19.67;;;665.70;563.20;;;;;;4989311;28;20097;-59
2021/04/11 09:01:51;;;;;;;11.43;9.70;;;666.10;563.20;;;;;;5083241;28;20033;-59
2021/04/11 09:04:43;;;;;;;14.13;9.60;;;666.50;563.20;;;;;;5091305;28;20029;-62
2021/04/11 09:07:52;;;;;;;12.63;10.05;;;666.40;563.20;;;;;;5090998;28;20016;-65
2021/04/11 09:10:23;;;;;;;13.65;12.25;;;691.40;537.60;;;;;;5008808;28;20480;-69
2021/04/11 09:13:07;;;;;;;20.27;16.48;;;691.30;512.00;;;;;;5008937;28;20029;-66
2021/04/11 09:15:48;;;;;;;15.35;11.55;;;691.40;512.00;;;;;;5010705;28;20038;-66
2021/04/11 09:18:48;;;;;;;6.80;5.93;;;691.20;486.40;;;;;;5010305;28;20022;-66
2021/04/11 09:21:22;;;;;;;9.75;6.72;;;666.30;460.80;;;;;;4932730;29;20052;-67
2021/04/11 09:24:16;;;;;;;12.93;8.27;;;665.90;512.00;;;;;;4933051;29;20134;-67
2021/04/11 09:26:50;;;;;;;;;;;665.60;486.40;;;;;;4935207;29;20035;-66
2021/04/11 09:29:30;;;;;;;12.38;9.05;;;665.70;512.00;;;;;;4933230;29;20377;-65
2021/04/11 09:32:25;;;;;;;6.55;5.57;;;665.60;537.60;;;;;;4932652;29;20067;-64
2021/04/11 09:35:00;;;;;;;8.38;6.47;;;640.60;512.00;;;;;;4894871;29;20075;-68
2021/04/11 09:38:02;;;;;;;12.32;9.02;;;640.20;512.00;;;;;;4894889;29;20084;-65
2021/04/11 09:40:48;;;;;;;9.07;5.97;;;615.30;537.60;;;;;;4894854;29;20167;-65
2021/04/11 09:43:40;;;;;;;5.72;4.03;;;615.00;537.60;;;;;;4894190;29;20111;-66
2021/04/11 09:46:41;;;;;;;10.65;6.60;;;614.80;563.20;;;;;;4908409;29;20049;-65
2021/04/11 09:49:06;;;;;;;8.20;6.57;;;614.80;563.20;;;;;;4951610;29;20434;-66
2021/04/11 09:51:59;;;;;;;27.65;18.30;;;614.60;563.20;;;;;;4951247;29;20039;-66
2021/04/11 09:54:56;;;;;;;13.35;10.05;;;615.10;563.20;;;;;;4951150;29;20038;-66
2021/04/11 09:57:59;;;;;;;87.75;73.32;;;614.80;563.20;;;;;;4883124;29;20052;-67
2021/04/11 10:00:54;;;;;;;23.98;18.25;;;615.00;537.60;;;;;;4932199;29;20043;-63
2021/04/11 10:03:38;;;;;;;17.10;13.52;;;614.80;537.60;;;;;;4932415;29;20038;-65
2021/04/11 10:06:18;;;;;;;11.20;7.70;;;615.00;537.60;;;;;;4931695;29;20079;-65
2021/04/11 10:09:03;;;;;;;34.13;21.33;;;615.10;588.80;;;;;;4931941;29;20615;-65
2021/04/11 10:11:47;;;;;;;15.50;10.35;;;640.00;512.00;;;;;;4965881;28;20130;-64
2021/04/11 10:14:46;;;;;;;16.05;10.88;;;615.20;512.00;;;;;;4989905;28;20545;-65
2021/04/11 10:17:39;;;;;;;14.52;7.13;;;615.30;537.60;;;;;;4989223;28;20157;-65
2021/04/11 10:20:10;;;;;;;23.90;14.48;;;615.30;537.60;;;;;;4989509;28;20072;-65
2021/04/11 10:22:45;;;;;;;52.83;32.92;;;615.20;486.40;;;;;;4989439;28;20148;-64
2021/04/11 10:25:23;;;;;;;41.38;23.75;;;615.00;537.60;;;;;;4989324;28;20427;-65
2021/04/11 10:28:28;;;;;;;12.27;5.82;;;615.00;486.40;;;;;;4989609;28;20088;-65
2021/04/11 10:31:10;;;;;;;35.53;21.55;;;614.90;486.40;;;;;;4979124;28;20031;-63
2021/04/11 10:34:15;;;;;;;12.60;9.23;;;614.70;512.00;;;;;;5008529;28;20113;-64
2021/04/11 10:36:48;;;;;;;8.88;6.97;;;614.80;486.40;;;;;;4994419;28;20061;-64
2021/04/11 10:39:14;;;;;;;39.65;26.52;;;614.70;537.60;;;;;;5010677;28;20395;-65
2021/04/11 10:42:08;;;;;;;31.52;21.50;;;614.90;537.60;;;;;;5009761;28;20079;-65
2021/04/11 10:44:47;;;;;;;16.80;11.27;;;614.80;537.60;;;;;;5008371;28;20179;-65
2021/04/11 10:47:43;;;;;;;25.40;17.20;;;614.50;537.60;;;;;;5002486;28;20110;-64
2021/04/11 10:50:23;;;;;;;36.35;23.42;;;614.80;563.20;;;;;;5008583;28;20030;-63
2021/04/11 10:53:33;;;;;;;11.02;8.18;;;614.80;537.60;;;;;;5005216;28;20081;-63
2021/04/11 10:56:27;;;;;;;26.45;14.90;;;614.70;512.00;;;;;;4930500;29;20059;-64
2021/04/11 10:59:07;;;;;;;21.02;15.55;;;614.80;512.00;;;;;;4925795;29;20043;-66
2021/04/11 11:01:44;;;;;;;23.08;16.63;;;615.30;512.00;;;;;;4931021;29;20133;-66
2021/04/11 11:04:22;;;;;;;17.70;13.55;;;615.30;486.40;;;;;;4930974;29;20031;-65
2021/04/11 11:06:57;;;;;;;24.00;19.40;;;615.30;512.00;;;;;;4928830;29;20039;-65
2021/04/11 11:09:54;;;;;;;25.98;17.83;;;614.80;537.60;;;;;;4929473;29;20052;-65
2021/04/11 11:12:52;;;;;;;16.85;11.90;;;614.50;537.60;;;;;;4914074;28;20064;-63
2021/04/11 11:15:38;;;;;;;16.77;14.93;;;589.50;563.20;;;;;;5008818;28;20017;-65
2021/04/11 11:18:21;;;;;;;14.10;11.23;;;589.70;537.60;;;;;;5008003;28;20107;-64
2021/04/11 11:20:55;;;;;;;16.65;13.50;;;614.40;563.20;;;;;;5008534;28;20124;-65
2021/04/11 11:23:33;;;;;;;9.75;6.90;;;614.60;563.20;;;;;;5008330;28;20026;-67
2021/04/11 11:26:30;;;;;;;20.42;11.93;;;614.40;537.60;;;;;;5008253;28;20041;-64
2021/04/11 11:29:20;;;;;;;19.52;13.95;;;614.70;563.20;;;;;;5008416;28;20041;-64
2021/04/11 11:32:11;;;;;;;28.88;17.88;;;615.10;537.60;;;;;;5018214;28;20127;-65
2021/04/11 11:34:42;;;;;;;10.95;7.32;;;615.20;537.60;;;;;;5052067;28;20048;-63
2021/04/11 11:37:39;;;;;;;30.98;18.85;;;615.30;537.60;;;;;;5060751;28;20028;-64
2021/04/11 11:40:31;;;;;;;9.65;5.90;;;615.20;512.00;;;;;;5069478;28;20041;-65
2021/04/11 11:43:26;;;;;;;7.07;5.50;;;615.30;563.20;;;;;;5060612;28;20031;-63
2021/04/11 11:45:52;;;;;;;11.18;7.10;;;640.20;537.60;;;;;;5069276;28;20047;-66
2021/04/11 11:48:36;;;;;;;6.72;4.15;;;640.10;512.00;;;;;;5085364;28;20020;-66
2021/04/11 11:51:13;;;;;;;9.05;5.60;;;640.10;563.20;;;;;;5089789;28;20043;-64
2021/04/11 11:54:08;;;;;;;7.97;5.13;;;640.30;486.40;;;;;;5090017;28;20505;-65
2021/04/11 11:56:48;;;;;;;8.38;4.82;;;640.20;460.80;;;;;;5085600;28;20486;-65
2021/04/11 11:59:26;;;;;;;9.10;4.20;;;615.30;537.60;;;;;;5090079;28;20043;-64
2021/04/11 12:02:15;;;;;;;7.38;4.32;;;615.30;460.80;;;;;;5089632;28;20497;-64
2021/04/11 12:04:46;;;;;;;8.30;4.47;;;640.00;409.60;;;;;;5090715;28;20114;-64
2021/04/11 12:07:19;;;;;;;5.25;3.40;;;615.10;435.20;;;;;;5093992;28;20544;-65
2021/04/11 12:09:48;;;;;;;5.85;4.03;;;640.40;486.40;;;;;;5094154;28;20499;-64
2021/04/11 12:12:23;;;;;;;6.57;3.50;;;640.40;486.40;;;;;;5093852;28;20462;-64
2021/04/11 12:15:00;;;;;;;4.95;2.90;;;640.30;460.80;;;;;;5094001;28;20058;-64
2021/04/11 12:17:37;;;;;;;7.97;4.60;;;640.40;384.00;;;;;;5091051;28;20796;-63
2021/04/11 12:20:12;;;;;;;9.35;4.40;;;640.60;384.00;;;;;;5091700;28;20036;-63
2021/04/11 12:22:45;;;;;;;36.22;21.77;;;640.60;409.60;;;;;;5092185;28;20036;-64
2021/04/11 12:25:19;;;;;;;66.00;34.90;;;640.80;409.60;;;;;;5100108;28;20028;-65
2021/04/11 12:27:46;;;;;;;9.20;5.60;;;640.60;384.00;;;;;;5104995;28;20036;-65
2021/04/11 12:30:17;;;;;;;56.67;32.72;;;640.60;384.00;;;;;;5106472;28;20024;-65
2021/04/11 12:33:11;;;;;;;34.33;18.52;;;640.50;486.40;;;;;;5106079;28;20031;-64
2021/04/11 12:36:01;;;;;;;13.52;6.88;;;640.50;435.20;;;;;;5096332;28;20035;-64
2021/04/11 12:38:30;;;;;;;9.30;6.63;;;640.40;512.00;;;;;;5093714;28;20111;-65
2021/04/11 12:41:26;;;;;;;20.25;13.25;;;640.30;409.60;;;;;;5092202;28;20076;-66
2021/04/11 12:44:40;;;;;;;26.77;20.65;;;640.30;409.60;;;;;;5093630;28;20128;-65
2021/04/11 12:47:17;;;;;;;7.20;4.75;;;640.00;435.20;;;;;;5010977;28;20022;-66
2021/04/11 12:50:24;;;;;;;46.42;39.88;;;615.30;435.20;;;;;;5011799;28;20161;-64
2021/04/11 12:53:02;;;;;;;11.30;8.65;;;615.20;460.80;;;;;;5001345;28;20435;-65
2021/04/11 12:55:43;;;;;;;14.90;12.18;;;614.70;486.40;;;;;;5011284;28;20034;-63
2021/04/11 12:58:37;;;;;;;24.50;14.40;;;614.60;512.00;;;;;;5011387;28;20129;-63
2021/04/11 13:01:11;;;;;;;32.08;18.30;;;589.60;512.00;;;;;;4933228;29;20439;-63
2021/04/11 13:03:52;;;;;;;19.17;11.55;;;589.40;512.00;;;;;;4933403;29;20497;-64
2021/04/11 13:06:23;;;;;;;46.38;29.05;;;589.40;537.60;;;;;;4933266;29;20044;-65
2021/04/11 13:09:16;;;;;;;65.38;39.72;;;589.10;537.60;;;;;;4933479;29;20119;-64